sensor_id;sensor_type;location;lat;lon;timestamp;P1;durP1;ratioP1;P2;durP2;ratioP2
47103;SDS011;32853;52.164;5.400;2022-11-12T00:00:46;17.45;;;9.25;;
47103;SDS011;32853;52.164;5.400;2022-11-12T00:03:13;12.75;;;8.55;;
47103;SDS011;32853;52.164;5.400;2022-11-12T00:05:39;17.77;;;9.60;;
47103;SDS011;32853;52.164;5.400;2022-11-12T00:08:04;18.38;;;9.52;;
47103;SDS011;32853;52.164;5.400;2022-11-12T00:10:29;15.75;;;8.40;;
47103;SDS011;32853;52.164;5.400;2022-11-12T00:12:58;16.25;;;8.02;;
47103;SDS011;32853;52.164;5.400;2022-11-12T00:15:23;17.25;;;8.02;;
47103;SDS011;32853;52.164;5.400;2022-11-12T00:17:50;15.60;;;7.72;;
47103;SDS011;32853;52.164;5.400;2022-11-12T00:20:15;15.88;;;7.20;;
47103;SDS011;32853;52.164;5.400;2022-11-12T00:22:40;16.52;;;9.35;;
47103;SDS011;32853;52.164;5.400;2022-11-12T00:25:06;15.75;;;7.82;;
47103;SDS011;32853;52.164;5.400;2022-11-12T00:27:32;15.40;;;8.35;;
47103;SDS011;32853;52.164;5.400;2022-11-12T00:29:58;15.52;;;7.15;;
47103;SDS011;32853;52.164;5.400;2022-11-12T00:32:23;14.32;;;7.72;;
47103;SDS011;32853;52.164;5.400;2022-11-12T00:34:50;13.88;;;7.25;;
47103;SDS011;32853;52.164;5.400;2022-11-12T00:37:17;14.52;;;8.05;;
47103;SDS011;32853;52.164;5.400;2022-11-12T00:39:43;12.77;;;7.85;;
47103;SDS011;32853;52.164;5.400;2022-11-12T00:42:09;17.88;;;7.80;;
47103;SDS011;32853;52.164;5.400;2022-11-12T00:44:36;14.13;;;8.07;;
47103;SDS011;32853;52.164;5.400;2022-11-12T00:47:01;16.85;;;7.90;;
47103;SDS011;32853;52.164;5.400;2022-11-12T00:49:26;14.90;;;8.07;;
47103;SDS011;32853;52.164;5.400;2022-11-12T00:51:52;14.02;;;8.80;;
47103;SDS011;32853;52.164;5.400;2022-11-12T00:54:18;16.33;;;8.43;;
47103;SDS011;32853;52.164;5.400;2022-11-12T00:56:47;16.92;;;8.68;;
47103;SDS011;32853;52.164;5.400;2022-11-12T01:06:54;15.30;;;8.77;;
47103;SDS011;32853;52.164;5.400;2022-11-12T01:09:20;14.88;;;8.40;;
47103;SDS011;32853;52.164;5.400;2022-11-12T01:11:47;20.60;;;8.23;;
47103;SDS011;32853;52.164;5.400;2022-11-12T01:14:12;18.70;;;8.23;;
47103;SDS011;32853;52.164;5.400;2022-11-12T01:16:38;18.70;;;8.10;;
47103;SDS011;32853;52.164;5.400;2022-11-12T01:19:05;11.18;;;7.93;;
47103;SDS011;32853;52.164;5.400;2022-11-12T01:21:35;13.98;;;8.10;;
47103;SDS011;32853;52.164;5.400;2022-11-12T01:24:02;18.52;;;7.70;;
47103;SDS011;32853;52.164;5.400;2022-11-12T01:26:27;15.75;;;7.45;;
47103;SDS011;32853;52.164;5.400;2022-11-12T01:28:53;14.63;;;8.23;;
47103;SDS011;32853;52.164;5.400;2022-11-12T01:31:20;13.63;;;8.20;;
47103;SDS011;32853;52.164;5.400;2022-11-12T01:33:52;14.02;;;8.20;;
47103;SDS011;32853;52.164;5.400;2022-11-12T01:36:19;16.40;;;7.88;;
47103;SDS011;32853;52.164;5.400;2022-11-12T01:41:33;12.68;;;7.53;;
47103;SDS011;32853;52.164;5.400;2022-11-12T01:44:09;12.68;;;8.05;;
47103;SDS011;32853;52.164;5.400;2022-11-12T01:55:25;15.80;;;8.82;;
47103;SDS011;32853;52.164;5.400;2022-11-12T01:57:55;16.27;;;8.25;;
47103;SDS011;32853;52.164;5.400;2022-11-12T02:00:34;15.50;;;7.88;;
47103;SDS011;32853;52.164;5.400;2022-11-12T02:03:02;21.02;;;8.65;;
47103;SDS011;32853;52.164;5.400;2022-11-12T02:05:32;18.15;;;10.00;;
47103;SDS011;32853;52.164;5.400;2022-11-12T02:07:59;19.90;;;8.07;;
47103;SDS011;32853;52.164;5.400;2022-11-12T02:10:31;18.48;;;9.60;;
47103;SDS011;32853;52.164;5.400;2022-11-12T02:12:56;24.17;;;10.15;;
47103;SDS011;32853;52.164;5.400;2022-11-12T02:15:40;15.73;;;9.52;;
47103;SDS011;32853;52.164;5.400;2022-11-12T02:18:15;16.00;;;8.55;;
47103;SDS011;32853;52.164;5.400;2022-11-12T02:20:41;18.67;;;10.68;;
47103;SDS011;32853;52.164;5.400;2022-11-12T02:23:09;17.33;;;8.85;;
47103;SDS011;32853;52.164;5.400;2022-11-12T02:25:38;20.55;;;8.52;;
47103;SDS011;32853;52.164;5.400;2022-11-12T02:28:04;18.23;;;10.30;;
47103;SDS011;32853;52.164;5.400;2022-11-12T02:32:58;13.95;;;8.07;;
47103;SDS011;32853;52.164;5.400;2022-11-12T02:35:25;20.65;;;9.23;;
47103;SDS011;32853;52.164;5.400;2022-11-12T02:37:51;17.00;;;9.40;;
47103;SDS011;32853;52.164;5.400;2022-11-12T02:40:17;18.30;;;9.27;;
47103;SDS011;32853;52.164;5.400;2022-11-12T02:42:47;17.55;;;9.27;;
47103;SDS011;32853;52.164;5.400;2022-11-12T02:45:13;15.52;;;9.02;;
47103;SDS011;32853;52.164;5.400;2022-11-12T02:47:47;16.27;;;8.57;;
47103;SDS011;32853;52.164;5.400;2022-11-12T02:50:14;13.35;;;8.50;;
47103;SDS011;32853;52.164;5.400;2022-11-12T02:52:43;13.75;;;8.80;;
47103;SDS011;32853;52.164;5.400;2022-11-12T02:55:09;20.15;;;10.30;;
47103;SDS011;32853;52.164;5.400;2022-11-12T03:00:16;22.10;;;9.07;;
47103;SDS011;32853;52.164;5.400;2022-11-12T03:02:42;20.40;;;9.23;;
47103;SDS011;32853;52.164;5.400;2022-11-12T03:05:22;21.27;;;9.98;;
47103;SDS011;32853;52.164;5.400;2022-11-12T03:07:48;19.75;;;9.38;;
47103;SDS011;32853;52.164;5.400;2022-11-12T03:10:13;16.48;;;9.18;;
47103;SDS011;32853;52.164;5.400;2022-11-12T03:12:39;21.92;;;9.93;;
47103;SDS011;32853;52.164;5.400;2022-11-12T03:15:04;18.23;;;9.63;;
47103;SDS011;32853;52.164;5.400;2022-11-12T03:17:34;16.48;;;8.75;;
47103;SDS011;32853;52.164;5.400;2022-11-12T03:20:15;17.52;;;8.65;;
47103;SDS011;32853;52.164;5.400;2022-11-12T03:22:53;18.80;;;9.55;;
47103;SDS011;32853;52.164;5.400;2022-11-12T03:25:38;13.68;;;7.93;;
47103;SDS011;32853;52.164;5.400;2022-11-12T03:28:08;14.80;;;8.18;;
47103;SDS011;32853;52.164;5.400;2022-11-12T03:30:36;24.45;;;9.52;;
47103;SDS011;32853;52.164;5.400;2022-11-12T03:33:03;17.75;;;9.02;;
47103;SDS011;32853;52.164;5.400;2022-11-12T03:35:30;16.42;;;9.13;;
47103;SDS011;32853;52.164;5.400;2022-11-12T03:37:56;17.75;;;9.65;;
47103;SDS011;32853;52.164;5.400;2022-11-12T03:40:22;17.73;;;9.80;;
47103;SDS011;32853;52.164;5.400;2022-11-12T03:42:49;18.08;;;9.40;;
47103;SDS011;32853;52.164;5.400;2022-11-12T03:45:16;19.52;;;10.15;;
47103;SDS011;32853;52.164;5.400;2022-11-12T03:47:43;25.63;;;10.35;;
47103;SDS011;32853;52.164;5.400;2022-11-12T03:50:11;22.77;;;9.68;;
47103;SDS011;32853;52.164;5.400;2022-11-12T03:52:37;18.38;;;10.20;;
47103;SDS011;32853;52.164;5.400;2022-11-12T03:55:04;18.05;;;8.85;;
47103;SDS011;32853;52.164;5.400;2022-11-12T03:57:29;24.98;;;9.48;;
47103;SDS011;32853;52.164;5.400;2022-11-12T03:59:55;19.10;;;8.88;;
47103;SDS011;32853;52.164;5.400;2022-11-12T04:02:22;18.35;;;9.38;;
47103;SDS011;32853;52.164;5.400;2022-11-12T04:05:04;29.92;;;10.23;;
47103;SDS011;32853;52.164;5.400;2022-11-12T04:07:50;22.27;;;10.38;;
47103;SDS011;32853;52.164;5.400;2022-11-12T04:10:40;15.02;;;8.68;;
47103;SDS011;32853;52.164;5.400;2022-11-12T04:13:05;26.10;;;9.23;;
47103;SDS011;32853;52.164;5.400;2022-11-12T04:15:49;13.30;;;7.93;;
47103;SDS011;32853;52.164;5.400;2022-11-12T04:18:41;23.00;;;9.50;;
47103;SDS011;32853;52.164;5.400;2022-11-12T04:21:27;26.23;;;10.82;;
47103;SDS011;32853;52.164;5.400;2022-11-12T04:27:22;26.25;;;10.77;;
47103;SDS011;32853;52.164;5.400;2022-11-12T04:29:51;40.88;;;10.52;;
47103;SDS011;32853;52.164;5.400;2022-11-12T04:32:52;18.77;;;10.88;;
47103;SDS011;32853;52.164;5.400;2022-11-12T04:35:26;17.70;;;8.93;;
47103;SDS011;32853;52.164;5.400;2022-11-12T04:37:52;16.25;;;10.50;;
47103;SDS011;32853;52.164;5.400;2022-11-12T04:40:21;26.95;;;11.35;;
47103;SDS011;32853;52.164;5.400;2022-11-12T04:43:10;26.65;;;10.65;;
47103;SDS011;32853;52.164;5.400;2022-11-12T04:45:58;16.65;;;8.25;;
47103;SDS011;32853;52.164;5.400;2022-11-12T04:48:26;20.58;;;9.73;;
47103;SDS011;32853;52.164;5.400;2022-11-12T04:51:00;30.30;;;9.38;;
47103;SDS011;32853;52.164;5.400;2022-11-12T04:53:27;20.55;;;9.20;;
47103;SDS011;32853;52.164;5.400;2022-11-12T04:55:54;21.33;;;10.15;;
47103;SDS011;32853;52.164;5.400;2022-11-12T04:58:21;22.13;;;9.45;;
47103;SDS011;32853;52.164;5.400;2022-11-12T05:00:47;19.20;;;10.18;;
47103;SDS011;32853;52.164;5.400;2022-11-12T05:03:13;17.50;;;10.05;;
47103;SDS011;32853;52.164;5.400;2022-11-12T05:05:38;16.02;;;8.65;;
47103;SDS011;32853;52.164;5.400;2022-11-12T05:08:04;17.80;;;9.35;;
47103;SDS011;32853;52.164;5.400;2022-11-12T05:10:32;18.65;;;9.27;;
47103;SDS011;32853;52.164;5.400;2022-11-12T05:12:58;17.75;;;8.35;;
47103;SDS011;32853;52.164;5.400;2022-11-12T05:15:23;15.90;;;8.88;;
47103;SDS011;32853;52.164;5.400;2022-11-12T05:17:48;26.55;;;9.27;;
47103;SDS011;32853;52.164;5.400;2022-11-12T05:20:14;20.90;;;9.88;;
47103;SDS011;32853;52.164;5.400;2022-11-12T05:22:41;19.67;;;10.85;;
47103;SDS011;32853;52.164;5.400;2022-11-12T05:25:15;21.27;;;9.25;;
47103;SDS011;32853;52.164;5.400;2022-11-12T05:30:09;15.02;;;10.35;;
47103;SDS011;32853;52.164;5.400;2022-11-12T05:32:37;21.00;;;11.10;;
47103;SDS011;32853;52.164;5.400;2022-11-12T05:38:09;16.48;;;9.68;;
47103;SDS011;32853;52.164;5.400;2022-11-12T05:44:01;16.80;;;8.90;;
47103;SDS011;32853;52.164;5.400;2022-11-12T05:46:27;13.23;;;8.48;;
47103;SDS011;32853;52.164;5.400;2022-11-12T05:48:53;16.23;;;9.90;;
47103;SDS011;32853;52.164;5.400;2022-11-12T05:51:18;15.55;;;8.82;;
47103;SDS011;32853;52.164;5.400;2022-11-12T05:53:46;17.13;;;9.40;;
47103;SDS011;32853;52.164;5.400;2022-11-12T05:58:57;14.48;;;8.60;;
47103;SDS011;32853;52.164;5.400;2022-11-12T06:01:22;17.45;;;9.77;;
47103;SDS011;32853;52.164;5.400;2022-11-12T06:03:47;18.30;;;8.38;;
47103;SDS011;32853;52.164;5.400;2022-11-12T06:06:13;21.23;;;9.07;;
47103;SDS011;32853;52.164;5.400;2022-11-12T06:08:38;14.95;;;9.20;;
47103;SDS011;32853;52.164;5.400;2022-11-12T06:11:03;15.98;;;9.30;;
47103;SDS011;32853;52.164;5.400;2022-11-12T06:13:29;18.30;;;9.88;;
47103;SDS011;32853;52.164;5.400;2022-11-12T06:15:55;19.45;;;8.70;;
47103;SDS011;32853;52.164;5.400;2022-11-12T06:18:21;13.85;;;8.45;;
47103;SDS011;32853;52.164;5.400;2022-11-12T06:20:47;17.08;;;9.52;;
47103;SDS011;32853;52.164;5.400;2022-11-12T06:23:31;16.85;;;9.35;;
47103;SDS011;32853;52.164;5.400;2022-11-12T06:25:57;16.77;;;8.55;;
47103;SDS011;32853;52.164;5.400;2022-11-12T06:28:22;22.25;;;8.75;;
47103;SDS011;32853;52.164;5.400;2022-11-12T06:30:47;21.60;;;8.57;;
47103;SDS011;32853;52.164;5.400;2022-11-12T06:33:23;18.80;;;9.25;;
47103;SDS011;32853;52.164;5.400;2022-11-12T06:35:54;16.33;;;8.38;;
47103;SDS011;32853;52.164;5.400;2022-11-12T06:38:25;23.08;;;9.23;;
47103;SDS011;32853;52.164;5.400;2022-11-12T06:40:50;16.33;;;9.68;;
47103;SDS011;32853;52.164;5.400;2022-11-12T06:43:15;18.35;;;8.95;;
47103;SDS011;32853;52.164;5.400;2022-11-12T06:45:41;19.58;;;8.65;;
47103;SDS011;32853;52.164;5.400;2022-11-12T06:48:07;20.05;;;8.50;;
47103;SDS011;32853;52.164;5.400;2022-11-12T06:50:32;17.90;;;8.90;;
47103;SDS011;32853;52.164;5.400;2022-11-12T06:52:58;19.08;;;8.68;;
47103;SDS011;32853;52.164;5.400;2022-11-12T06:55:24;14.20;;;8.90;;
47103;SDS011;32853;52.164;5.400;2022-11-12T06:57:52;18.48;;;9.18;;
47103;SDS011;32853;52.164;5.400;2022-11-12T07:00:18;18.23;;;8.70;;
47103;SDS011;32853;52.164;5.400;2022-11-12T07:02:44;19.23;;;8.65;;
47103;SDS011;32853;52.164;5.400;2022-11-12T07:05:09;15.77;;;9.07;;
47103;SDS011;32853;52.164;5.400;2022-11-12T07:07:36;12.10;;;7.95;;
47103;SDS011;32853;52.164;5.400;2022-11-12T07:10:04;14.77;;;8.85;;
47103;SDS011;32853;52.164;5.400;2022-11-12T07:12:29;17.58;;;8.93;;
47103;SDS011;32853;52.164;5.400;2022-11-12T07:14:56;17.65;;;9.38;;
47103;SDS011;32853;52.164;5.400;2022-11-12T07:17:22;14.50;;;8.20;;
47103;SDS011;32853;52.164;5.400;2022-11-12T07:19:49;16.15;;;8.15;;
47103;SDS011;32853;52.164;5.400;2022-11-12T07:22:14;16.45;;;8.57;;
47103;SDS011;32853;52.164;5.400;2022-11-12T07:24:51;22.08;;;8.82;;
47103;SDS011;32853;52.164;5.400;2022-11-12T07:27:16;14.20;;;7.55;;
47103;SDS011;32853;52.164;5.400;2022-11-12T07:29:51;16.13;;;7.53;;
47103;SDS011;32853;52.164;5.400;2022-11-12T07:32:16;13.82;;;8.82;;
47103;SDS011;32853;52.164;5.400;2022-11-12T07:34:41;25.35;;;8.60;;
47103;SDS011;32853;52.164;5.400;2022-11-12T07:37:07;14.98;;;9.13;;
47103;SDS011;32853;52.164;5.400;2022-11-12T07:39:33;14.70;;;7.10;;
47103;SDS011;32853;52.164;5.400;2022-11-12T07:42:04;15.95;;;7.55;;
47103;SDS011;32853;52.164;5.400;2022-11-12T07:44:32;13.02;;;7.40;;
47103;SDS011;32853;52.164;5.400;2022-11-12T07:46:57;12.98;;;8.18;;
47103;SDS011;32853;52.164;5.400;2022-11-12T07:49:32;14.45;;;7.60;;
47103;SDS011;32853;52.164;5.400;2022-11-12T07:52:06;20.13;;;8.63;;
47103;SDS011;32853;52.164;5.400;2022-11-12T07:54:31;15.57;;;7.82;;
47103;SDS011;32853;52.164;5.400;2022-11-12T07:56:57;15.80;;;7.57;;
47103;SDS011;32853;52.164;5.400;2022-11-12T07:59:22;14.70;;;8.30;;
47103;SDS011;32853;52.164;5.400;2022-11-12T08:01:48;12.70;;;7.78;;
47103;SDS011;32853;52.164;5.400;2022-11-12T08:04:14;20.83;;;9.27;;
47103;SDS011;32853;52.164;5.400;2022-11-12T08:06:39;13.50;;;8.48;;
47103;SDS011;32853;52.164;5.400;2022-11-12T08:09:12;14.60;;;8.82;;
47103;SDS011;32853;52.164;5.400;2022-11-12T08:11:38;14.02;;;8.05;;
47103;SDS011;32853;52.164;5.400;2022-11-12T08:14:04;12.20;;;7.90;;
47103;SDS011;32853;52.164;5.400;2022-11-12T08:16:30;13.65;;;8.35;;
47103;SDS011;32853;52.164;5.400;2022-11-12T08:22:02;15.25;;;8.55;;
47103;SDS011;32853;52.164;5.400;2022-11-12T08:24:30;11.10;;;7.85;;
47103;SDS011;32853;52.164;5.400;2022-11-12T08:26:57;13.43;;;7.90;;
47103;SDS011;32853;52.164;5.400;2022-11-12T08:29:22;17.65;;;8.75;;
47103;SDS011;32853;52.164;5.400;2022-11-12T08:31:47;15.55;;;7.95;;
47103;SDS011;32853;52.164;5.400;2022-11-12T08:34:13;12.65;;;7.82;;
47103;SDS011;32853;52.164;5.400;2022-11-12T08:36:38;15.48;;;8.73;;
47103;SDS011;32853;52.164;5.400;2022-11-12T08:39:04;13.75;;;8.55;;
47103;SDS011;32853;52.164;5.400;2022-11-12T08:41:31;18.25;;;9.38;;
47103;SDS011;32853;52.164;5.400;2022-11-12T08:44:03;16.20;;;8.80;;
47103;SDS011;32853;52.164;5.400;2022-11-12T08:49:20;19.63;;;9.43;;
47103;SDS011;32853;52.164;5.400;2022-11-12T08:51:46;18.05;;;9.35;;
47103;SDS011;32853;52.164;5.400;2022-11-12T08:54:12;14.80;;;8.68;;
47103;SDS011;32853;52.164;5.400;2022-11-12T08:56:39;23.50;;;10.30;;
47103;SDS011;32853;52.164;5.400;2022-11-12T08:59:04;19.13;;;10.43;;
47103;SDS011;32853;52.164;5.400;2022-11-12T09:01:29;18.35;;;9.20;;
47103;SDS011;32853;52.164;5.400;2022-11-12T09:03:55;16.27;;;9.43;;
47103;SDS011;32853;52.164;5.400;2022-11-12T09:06:22;15.95;;;10.15;;
47103;SDS011;32853;52.164;5.400;2022-11-12T09:08:47;17.40;;;11.27;;
47103;SDS011;32853;52.164;5.400;2022-11-12T09:11:13;19.40;;;10.90;;
47103;SDS011;32853;52.164;5.400;2022-11-12T09:13:38;22.75;;;11.65;;
47103;SDS011;32853;52.164;5.400;2022-11-12T09:16:04;24.67;;;11.20;;
47103;SDS011;32853;52.164;5.400;2022-11-12T09:18:31;14.57;;;10.48;;
47103;SDS011;32853;52.164;5.400;2022-11-12T09:20:58;21.52;;;12.35;;
47103;SDS011;32853;52.164;5.400;2022-11-12T09:23:42;12.65;;;9.20;;
47103;SDS011;32853;52.164;5.400;2022-11-12T09:26:08;20.55;;;10.45;;
47103;SDS011;32853;52.164;5.400;2022-11-12T09:28:33;21.35;;;11.55;;
47103;SDS011;32853;52.164;5.400;2022-11-12T09:31:02;18.77;;;9.60;;
47103;SDS011;32853;52.164;5.400;2022-11-12T09:38:51;16.45;;;10.13;;
47103;SDS011;32853;52.164;5.400;2022-11-12T09:41:34;18.10;;;10.65;;
47103;SDS011;32853;52.164;5.400;2022-11-12T09:44:17;16.80;;;8.60;;
47103;SDS011;32853;52.164;5.400;2022-11-12T09:49:50;16.67;;;9.90;;
47103;SDS011;32853;52.164;5.400;2022-11-12T09:52:34;12.70;;;7.45;;
47103;SDS011;32853;52.164;5.400;2022-11-12T09:55:07;12.23;;;8.18;;
47103;SDS011;32853;52.164;5.400;2022-11-12T10:00:15;15.30;;;9.07;;
47103;SDS011;32853;52.164;5.400;2022-11-12T10:02:54;17.95;;;10.15;;
47103;SDS011;32853;52.164;5.400;2022-11-12T10:05:33;12.35;;;8.40;;
47103;SDS011;32853;52.164;5.400;2022-11-12T10:10:43;17.05;;;8.77;;
47103;SDS011;32853;52.164;5.400;2022-11-12T10:22:16;12.40;;;8.43;;
47103;SDS011;32853;52.164;5.400;2022-11-12T10:25:14;14.75;;;7.53;;
47103;SDS011;32853;52.164;5.400;2022-11-12T10:27:42;11.82;;;7.35;;
47103;SDS011;32853;52.164;5.400;2022-11-12T10:30:23;10.30;;;7.18;;
47103;SDS011;32853;52.164;5.400;2022-11-12T10:32:50;14.88;;;8.02;;
47103;SDS011;32853;52.164;5.400;2022-11-12T10:35:18;15.40;;;8.15;;
47103;SDS011;32853;52.164;5.400;2022-11-12T10:40:36;14.25;;;7.45;;
47103;SDS011;32853;52.164;5.400;2022-11-12T10:43:05;12.45;;;8.02;;
47103;SDS011;32853;52.164;5.400;2022-11-12T10:45:31;12.13;;;6.88;;
47103;SDS011;32853;52.164;5.400;2022-11-12T10:47:56;11.15;;;7.43;;
47103;SDS011;32853;52.164;5.400;2022-11-12T10:53:09;11.88;;;7.20;;
47103;SDS011;32853;52.164;5.400;2022-11-12T10:58:30;10.35;;;7.07;;
47103;SDS011;32853;52.164;5.400;2022-11-12T11:01:13;10.95;;;6.97;;
47103;SDS011;32853;52.164;5.400;2022-11-12T11:03:54;11.45;;;6.30;;
47103;SDS011;32853;52.164;5.400;2022-11-12T11:06:24;7.70;;;6.25;;
47103;SDS011;32853;52.164;5.400;2022-11-12T11:08:53;14.20;;;5.70;;
47103;SDS011;32853;52.164;5.400;2022-11-12T11:11:47;9.35;;;6.05;;
47103;SDS011;32853;52.164;5.400;2022-11-12T11:16:49;11.43;;;5.60;;
47103;SDS011;32853;52.164;5.400;2022-11-12T11:19:39;11.27;;;5.97;;
47103;SDS011;32853;52.164;5.400;2022-11-12T11:22:09;13.95;;;6.75;;
47103;SDS011;32853;52.164;5.400;2022-11-12T11:27:18;10.55;;;6.20;;
47103;SDS011;32853;52.164;5.400;2022-11-12T11:30:11;11.27;;;6.85;;
47103;SDS011;32853;52.164;5.400;2022-11-12T11:35:22;13.55;;;6.45;;
47103;SDS011;32853;52.164;5.400;2022-11-12T11:38:16;10.43;;;5.65;;
47103;SDS011;32853;52.164;5.400;2022-11-12T11:41:25;9.38;;;4.93;;
47103;SDS011;32853;52.164;5.400;2022-11-12T11:46:54;6.45;;;4.70;;
47103;SDS011;32853;52.164;5.400;2022-11-12T12:00:20;9.80;;;3.90;;
47103;SDS011;32853;52.164;5.400;2022-11-12T12:11:33;4.57;;;3.17;;
47103;SDS011;32853;52.164;5.400;2022-11-12T12:14:05;7.85;;;3.53;;
47103;SDS011;32853;52.164;5.400;2022-11-12T12:16:41;5.72;;;3.55;;
47103;SDS011;32853;52.164;5.400;2022-11-12T12:21:56;6.93;;;3.63;;
47103;SDS011;32853;52.164;5.400;2022-11-12T12:24:34;4.75;;;3.20;;
47103;SDS011;32853;52.164;5.400;2022-11-12T12:29:49;6.18;;;3.42;;
47103;SDS011;32853;52.164;5.400;2022-11-12T12:32:27;6.97;;;4.45;;
47103;SDS011;32853;52.164;5.400;2022-11-12T12:38:42;12.18;;;5.05;;
47103;SDS011;32853;52.164;5.400;2022-11-12T12:44:08;5.57;;;3.40;;
47103;SDS011;32853;52.164;5.400;2022-11-12T12:46:44;8.25;;;2.97;;
47103;SDS011;32853;52.164;5.400;2022-11-12T12:49:32;6.10;;;3.10;;
47103;SDS011;32853;52.164;5.400;2022-11-12T12:52:01;6.85;;;3.85;;
47103;SDS011;32853;52.164;5.400;2022-11-12T12:57:07;7.65;;;3.05;;
47103;SDS011;32853;52.164;5.400;2022-11-12T12:59:49;5.47;;;3.30;;
47103;SDS011;32853;52.164;5.400;2022-11-12T13:02:19;7.22;;;3.75;;
47103;SDS011;32853;52.164;5.400;2022-11-12T13:04:58;6.07;;;3.88;;
47103;SDS011;32853;52.164;5.400;2022-11-12T13:07:37;6.03;;;4.05;;
47103;SDS011;32853;52.164;5.400;2022-11-12T13:15:41;10.93;;;5.22;;
47103;SDS011;32853;52.164;5.400;2022-11-12T13:18:08;10.88;;;5.43;;
47103;SDS011;32853;52.164;5.400;2022-11-12T13:20:35;6.35;;;4.63;;
47103;SDS011;32853;52.164;5.400;2022-11-12T13:23:04;10.20;;;5.70;;
47103;SDS011;32853;52.164;5.400;2022-11-12T13:25:33;7.13;;;5.10;;
47103;SDS011;32853;52.164;5.400;2022-11-12T13:33:22;8.80;;;3.90;;
47103;SDS011;32853;52.164;5.400;2022-11-12T13:35:51;13.02;;;4.75;;
47103;SDS011;32853;52.164;5.400;2022-11-12T13:38:52;9.27;;;4.57;;
47103;SDS011;32853;52.164;5.400;2022-11-12T13:44:41;6.25;;;4.28;;
47103;SDS011;32853;52.164;5.400;2022-11-12T13:47:20;6.85;;;4.43;;
47103;SDS011;32853;52.164;5.400;2022-11-12T13:49:49;5.45;;;4.10;;
47103;SDS011;32853;52.164;5.400;2022-11-12T13:52:15;8.77;;;4.70;;
47103;SDS011;32853;52.164;5.400;2022-11-12T14:00:55;11.70;;;5.10;;
47103;SDS011;32853;52.164;5.400;2022-11-12T14:06:18;8.82;;;5.47;;
47103;SDS011;32853;52.164;5.400;2022-11-12T14:09:14;11.75;;;6.75;;
47103;SDS011;32853;52.164;5.400;2022-11-12T14:20:31;14.52;;;8.95;;
47103;SDS011;32853;52.164;5.400;2022-11-12T14:23:14;13.80;;;8.68;;
47103;SDS011;32853;52.164;5.400;2022-11-12T14:25:45;15.10;;;8.65;;
47103;SDS011;32853;52.164;5.400;2022-11-12T14:30:54;12.60;;;6.78;;
47103;SDS011;32853;52.164;5.400;2022-11-12T14:33:21;11.77;;;5.97;;
47103;SDS011;32853;52.164;5.400;2022-11-12T14:35:48;9.18;;;5.75;;
47103;SDS011;32853;52.164;5.400;2022-11-12T14:38:31;14.95;;;6.85;;
47103;SDS011;32853;52.164;5.400;2022-11-12T14:41:09;12.30;;;5.40;;
47103;SDS011;32853;52.164;5.400;2022-11-12T14:43:43;11.68;;;5.93;;
47103;SDS011;32853;52.164;5.400;2022-11-12T14:51:41;12.77;;;5.53;;
47103;SDS011;32853;52.164;5.400;2022-11-12T14:54:23;8.55;;;5.20;;
47103;SDS011;32853;52.164;5.400;2022-11-12T14:57:28;12.82;;;6.00;;
47103;SDS011;32853;52.164;5.400;2022-11-12T14:59:55;8.90;;;5.68;;
47103;SDS011;32853;52.164;5.400;2022-11-12T15:02:24;18.42;;;5.60;;
47103;SDS011;32853;52.164;5.400;2022-11-12T15:05:00;13.52;;;5.93;;
47103;SDS011;32853;52.164;5.400;2022-11-12T15:07:28;9.13;;;6.32;;
47103;SDS011;32853;52.164;5.400;2022-11-12T15:09:56;13.73;;;6.97;;
47103;SDS011;32853;52.164;5.400;2022-11-12T15:12:22;11.68;;;5.95;;
47103;SDS011;32853;52.164;5.400;2022-11-12T15:14:51;12.02;;;7.78;;
47103;SDS011;32853;52.164;5.400;2022-11-12T15:17:38;14.35;;;6.72;;
47103;SDS011;32853;52.164;5.400;2022-11-12T15:20:21;13.38;;;7.70;;
47103;SDS011;32853;52.164;5.400;2022-11-12T15:22:50;11.27;;;6.10;;
47103;SDS011;32853;52.164;5.400;2022-11-12T15:25:26;9.13;;;6.38;;
47103;SDS011;32853;52.164;5.400;2022-11-12T15:27:54;13.82;;;7.55;;
47103;SDS011;32853;52.164;5.400;2022-11-12T15:30:21;13.68;;;7.78;;
47103;SDS011;32853;52.164;5.400;2022-11-12T15:35:33;13.48;;;6.38;;
47103;SDS011;32853;52.164;5.400;2022-11-12T15:38:02;10.63;;;6.75;;
47103;SDS011;32853;52.164;5.400;2022-11-12T15:40:38;8.90;;;6.38;;
47103;SDS011;32853;52.164;5.400;2022-11-12T15:43:11;22.88;;;5.85;;
47103;SDS011;32853;52.164;5.400;2022-11-12T15:48:16;10.40;;;5.30;;
47103;SDS011;32853;52.164;5.400;2022-11-12T15:50:47;10.35;;;6.85;;
47103;SDS011;32853;52.164;5.400;2022-11-12T15:53:13;13.88;;;6.78;;
47103;SDS011;32853;52.164;5.400;2022-11-12T15:55:40;17.77;;;9.93;;
47103;SDS011;32853;52.164;5.400;2022-11-12T15:58:10;14.00;;;7.20;;
47103;SDS011;32853;52.164;5.400;2022-11-12T16:00:39;16.98;;;7.70;;
47103;SDS011;32853;52.164;5.400;2022-11-12T16:03:09;21.77;;;10.18;;
47103;SDS011;32853;52.164;5.400;2022-11-12T16:05:40;13.75;;;8.85;;
47103;SDS011;32853;52.164;5.400;2022-11-12T16:08:06;25.85;;;9.65;;
47103;SDS011;32853;52.164;5.400;2022-11-12T16:10:32;14.98;;;8.13;;
47103;SDS011;32853;52.164;5.400;2022-11-12T16:13:00;12.52;;;7.03;;
47103;SDS011;32853;52.164;5.400;2022-11-12T16:15:27;10.40;;;6.38;;
47103;SDS011;32853;52.164;5.400;2022-11-12T16:17:53;15.80;;;7.60;;
47103;SDS011;32853;52.164;5.400;2022-11-12T16:20:26;12.52;;;8.48;;
47103;SDS011;32853;52.164;5.400;2022-11-12T16:22:55;14.65;;;8.18;;
47103;SDS011;32853;52.164;5.400;2022-11-12T16:25:21;17.08;;;8.38;;
47103;SDS011;32853;52.164;5.400;2022-11-12T16:27:47;12.55;;;7.40;;
47103;SDS011;32853;52.164;5.400;2022-11-12T16:30:16;11.85;;;7.72;;
47103;SDS011;32853;52.164;5.400;2022-11-12T16:33:04;17.98;;;7.63;;
47103;SDS011;32853;52.164;5.400;2022-11-12T16:37:57;14.50;;;6.55;;
47103;SDS011;32853;52.164;5.400;2022-11-12T16:40:26;15.85;;;6.63;;
47103;SDS011;32853;52.164;5.400;2022-11-12T16:42:53;8.88;;;6.47;;
47103;SDS011;32853;52.164;5.400;2022-11-12T16:45:19;11.52;;;6.45;;
47103;SDS011;32853;52.164;5.400;2022-11-12T16:47:51;12.20;;;6.38;;
47103;SDS011;32853;52.164;5.400;2022-11-12T16:50:20;11.40;;;6.13;;
47103;SDS011;32853;52.164;5.400;2022-11-12T16:52:48;12.10;;;6.65;;
47103;SDS011;32853;52.164;5.400;2022-11-12T16:55:14;11.82;;;6.50;;
47103;SDS011;32853;52.164;5.400;2022-11-12T16:57:39;13.15;;;6.80;;
47103;SDS011;32853;52.164;5.400;2022-11-12T17:00:09;12.90;;;6.70;;
47103;SDS011;32853;52.164;5.400;2022-11-12T17:02:37;13.50;;;6.70;;
47103;SDS011;32853;52.164;5.400;2022-11-12T17:05:03;9.75;;;5.50;;
47103;SDS011;32853;52.164;5.400;2022-11-12T17:07:32;15.80;;;7.68;;
47103;SDS011;32853;52.164;5.400;2022-11-12T17:12:37;12.38;;;8.10;;
47103;SDS011;32853;52.164;5.400;2022-11-12T17:15:03;15.77;;;8.65;;
47103;SDS011;32853;52.164;5.400;2022-11-12T17:17:33;16.83;;;8.88;;
47103;SDS011;32853;52.164;5.400;2022-11-12T17:22:31;16.15;;;9.00;;
47103;SDS011;32853;52.164;5.400;2022-11-12T17:24:59;17.55;;;9.10;;
47103;SDS011;32853;52.164;5.400;2022-11-12T17:27:38;17.20;;;8.90;;
47103;SDS011;32853;52.164;5.400;2022-11-12T17:30:04;15.07;;;9.00;;
47103;SDS011;32853;52.164;5.400;2022-11-12T17:32:29;21.20;;;10.73;;
47103;SDS011;32853;52.164;5.400;2022-11-12T17:34:55;17.50;;;10.32;;
47103;SDS011;32853;52.164;5.400;2022-11-12T17:37:26;15.50;;;9.60;;
47103;SDS011;32853;52.164;5.400;2022-11-12T17:40:00;13.40;;;8.88;;
47103;SDS011;32853;52.164;5.400;2022-11-12T17:42:25;20.90;;;8.95;;
47103;SDS011;32853;52.164;5.400;2022-11-12T17:45:03;17.38;;;9.80;;